createdAt,value
2022-10-09T00:00:11.722Z,14.20
2022-10-09T00:03:17.138Z,14.10
2022-10-09T00:06:22.249Z,14.10
2022-10-09T00:09:25.119Z,14.10
2022-10-09T00:12:28.086Z,14.00
2022-10-09T00:15:32.294Z,14.00
2022-10-09T00:18:35.824Z,14.00
2022-10-09T00:21:38.917Z,14.00
2022-10-09T00:24:43.553Z,14.00
2022-10-09T00:27:46.430Z,14.00
2022-10-09T00:30:50.743Z,13.90
2022-10-09T00:33:53.785Z,13.90
2022-10-09T00:36:56.665Z,13.90
2022-10-09T00:39:59.505Z,13.70
2022-10-09T00:43:02.594Z,13.80
2022-10-09T00:46:07.701Z,13.80
2022-10-09T00:49:16.095Z,13.70
2022-10-09T00:52:19.321Z,13.70
2022-10-09T00:55:24.032Z,13.70
2022-10-09T00:58:27.627Z,13.70
2022-10-09T01:01:31.878Z,13.60
2022-10-09T01:04:35.037Z,13.50
2022-10-09T01:07:44.188Z,13.50
2022-10-09T01:10:55.419Z,13.50
2022-10-09T01:14:04.637Z,13.50
2022-10-09T01:17:15.339Z,13.50
2022-10-09T01:20:42.169Z,13.50
2022-10-09T01:24:03.100Z,13.50
2022-10-09T01:27:16.489Z,13.40
2022-10-09T01:30:19.557Z,13.40
2022-10-09T01:33:22.650Z,13.40
2022-10-09T01:39:31.669Z,13.20
2022-10-09T01:42:36.028Z,13.20
2022-10-09T01:45:41.351Z,13.20
2022-10-09T01:48:45.948Z,13.20
2022-10-09T01:51:54.512Z,13.20
2022-10-09T01:55:16.614Z,13.20
2022-10-09T01:58:28.005Z,13.20
2022-10-09T02:01:33.844Z,13.10
2022-10-09T02:04:39.589Z,13.20
2022-10-09T02:07:42.688Z,13.10
2022-10-09T02:10:47.259Z,13.10
2022-10-09T02:13:53.561Z,13.10
2022-10-09T02:17:02.368Z,13.00
2022-10-09T02:20:10.332Z,12.90
2022-10-09T02:23:15.821Z,13.00
2022-10-09T02:26:19.608Z,13.00
2022-10-09T02:29:23.922Z,12.90
2022-10-09T02:32:26.937Z,12.90
2022-10-09T02:35:30.305Z,13.00
2022-10-09T02:38:33.180Z,12.90
2022-10-09T02:41:36.446Z,12.90
2022-10-09T02:44:40.919Z,12.90
2022-10-09T02:47:43.771Z,12.90
2022-10-09T02:50:46.886Z,12.90
2022-10-09T02:53:49.757Z,12.90
2022-10-09T02:56:52.636Z,12.90
2022-10-09T02:59:56.881Z,12.80
2022-10-09T03:02:59.803Z,12.80
2022-10-09T03:06:04.231Z,12.80
2022-10-09T03:09:07.103Z,12.80
2022-10-09T03:12:10.198Z,12.80
2022-10-09T03:15:14.888Z,12.80
2022-10-09T03:18:17.994Z,12.80
2022-10-09T03:21:22.254Z,12.80
2022-10-09T03:24:25.146Z,12.70
2022-10-09T03:27:28.017Z,12.70
2022-10-09T03:30:32.483Z,12.60
2022-10-09T03:33:35.722Z,12.70
2022-10-09T03:36:38.621Z,12.70
2022-10-09T03:39:41.472Z,12.60
2022-10-09T03:42:44.382Z,12.60
2022-10-09T03:45:48.681Z,12.60
2022-10-09T03:48:51.525Z,12.60
2022-10-09T03:51:54.402Z,12.50
2022-10-09T03:54:57.298Z,12.60
2022-10-09T03:58:00.413Z,12.60
2022-10-09T04:01:04.732Z,12.60
2022-10-09T04:04:07.634Z,12.60
2022-10-09T04:07:10.504Z,12.50
2022-10-09T04:10:13.711Z,12.50
2022-10-09T04:13:16.581Z,12.50
2022-10-09T04:16:21.094Z,12.50
2022-10-09T04:19:24.065Z,12.50
2022-10-09T04:22:27.280Z,12.50
2022-10-09T04:25:30.178Z,12.50
2022-10-09T04:28:33.255Z,12.40
2022-10-09T04:31:37.597Z,12.40
2022-10-09T04:34:40.466Z,12.40
2022-10-09T04:37:43.371Z,12.40
2022-10-09T04:40:46.252Z,12.40
2022-10-09T04:43:49.144Z,12.30
2022-10-09T04:46:53.455Z,12.20
2022-10-09T04:49:56.347Z,12.20
2022-10-09T04:52:59.236Z,12.20
2022-10-09T04:56:04.835Z,12.20
2022-10-09T04:59:07.697Z,12.20
2022-10-09T05:02:12.242Z,12.20
2022-10-09T05:05:15.325Z,12.20
2022-10-09T05:08:18.174Z,12.20
2022-10-09T05:14:26.147Z,12.20
2022-10-09T05:17:30.384Z,12.10
2022-10-09T05:20:33.290Z,12.20
2022-10-09T05:23:36.439Z,12.10
2022-10-09T05:26:39.313Z,12.10
2022-10-09T05:29:42.321Z,12.10
2022-10-09T05:32:46.781Z,12.10
2022-10-09T05:35:53.393Z,12.10
2022-10-09T05:38:56.436Z,12.10
2022-10-09T05:41:59.365Z,12.10
2022-10-09T05:45:02.273Z,12.10
2022-10-09T05:48:07.145Z,12.10
2022-10-09T05:51:12.132Z,12.10
2022-10-09T05:54:16.554Z,12.10
2022-10-09T05:57:19.420Z,12.10
2022-10-09T06:00:22.576Z,12.10
2022-10-09T06:03:26.821Z,12.10
2022-10-09T06:06:31.362Z,12.10
2022-10-09T06:09:34.212Z,12.20
2022-10-09T06:12:37.061Z,12.10
2022-10-09T06:15:39.934Z,12.10
2022-10-09T06:18:49.406Z,12.10
2022-10-09T06:21:52.540Z,12.10
2022-10-09T06:24:55.400Z,12.00
2022-10-09T06:27:59.185Z,12.00
2022-10-09T06:31:03.773Z,12.00
2022-10-09T06:34:08.093Z,12.00
2022-10-09T06:37:10.988Z,12.00
2022-10-09T06:40:13.866Z,12.00
2022-10-09T06:43:16.717Z,11.90
2022-10-09T06:46:20.654Z,11.90
2022-10-09T06:49:25.118Z,12.00
2022-10-09T06:52:28.008Z,12.00
2022-10-09T06:55:30.894Z,12.00
2022-10-09T06:58:33.832Z,12.00
2022-10-09T07:01:36.939Z,12.00
2022-10-09T07:04:41.180Z,12.00
2022-10-09T07:07:44.113Z,12.10
2022-10-09T07:10:46.964Z,12.10
2022-10-09T07:13:52.164Z,12.10
2022-10-09T07:16:55.024Z,12.20
2022-10-09T07:19:59.250Z,12.30
2022-10-09T07:23:02.126Z,12.30
2022-10-09T07:26:11.745Z,12.30
2022-10-09T07:29:17.300Z,12.30
2022-10-09T07:32:20.300Z,12.40
2022-10-09T07:35:24.529Z,12.40
2022-10-09T07:38:27.651Z,12.40
2022-10-09T07:41:31.203Z,12.40
2022-10-09T07:44:35.048Z,12.40
2022-10-09T07:47:37.914Z,12.50
2022-10-09T07:50:42.229Z,12.60
2022-10-09T07:53:46.079Z,12.40
2022-10-09T07:56:48.944Z,12.40
2022-10-09T07:59:51.853Z,12.40
2022-10-09T08:02:54.782Z,12.40
2022-10-09T08:05:59.483Z,12.50
2022-10-09T08:09:03.725Z,12.60
2022-10-09T08:12:06.697Z,12.70
2022-10-09T08:15:10.463Z,12.80
2022-10-09T08:18:13.520Z,12.80
2022-10-09T08:21:20.019Z,12.80
2022-10-09T08:24:22.850Z,12.90
2022-10-09T08:27:25.707Z,12.90
2022-10-09T08:30:28.578Z,13.00
2022-10-09T08:33:31.454Z,13.00
2022-10-09T08:36:35.657Z,13.00
2022-10-09T08:39:38.610Z,12.90
2022-10-09T08:42:46.843Z,13.00
2022-10-09T08:45:52.121Z,13.20
2022-10-09T08:48:56.134Z,13.30
2022-10-09T08:52:07.025Z,13.30
2022-10-09T08:55:18.599Z,13.30
2022-10-09T08:58:22.796Z,13.40
2022-10-09T09:01:33.587Z,13.40
2022-10-09T09:04:51.126Z,13.50
2022-10-09T09:08:06.539Z,13.60
2022-10-09T09:11:22.165Z,13.60
2022-10-09T09:14:47.646Z,13.60
2022-10-09T09:18:00.021Z,13.60
2022-10-09T09:21:06.624Z,13.60
2022-10-09T09:24:15.942Z,13.70
2022-10-09T09:27:21.137Z,13.70
2022-10-09T09:30:28.867Z,13.90
2022-10-09T09:33:44.479Z,13.90
2022-10-09T09:36:52.973Z,14.00
2022-10-09T09:43:23.076Z,14.10
2022-10-09T09:46:30.972Z,14.20
2022-10-09T09:49:33.973Z,14.30
2022-10-09T09:52:40.714Z,14.40
2022-10-09T09:55:44.971Z,14.40
2022-10-09T09:58:49.694Z,14.50
2022-10-09T10:02:01.395Z,14.50
2022-10-09T10:05:18.800Z,14.50
2022-10-09T12:00:58.595Z,16.30
2022-10-09T12:04:05.295Z,16.30
2022-10-09T12:07:09.382Z,16.40
2022-10-09T12:10:25.868Z,16.40
2022-10-09T12:13:32.343Z,16.40
2022-10-09T12:16:40.766Z,16.50
2022-10-09T12:19:44.097Z,16.50
2022-10-09T12:23:13.955Z,16.50
2022-10-09T12:26:14.857Z,16.50
2022-10-09T12:29:25.152Z,16.60
2022-10-09T12:32:34.460Z,16.60
2022-10-09T12:35:39.796Z,16.40
2022-10-09T12:38:43.819Z,16.50
2022-10-09T12:41:49.928Z,16.60
2022-10-09T12:44:55.376Z,16.60
2022-10-09T12:48:00.734Z,16.70
2022-10-09T12:51:03.607Z,16.70
2022-10-09T12:54:10.257Z,16.70
2022-10-09T12:57:16.577Z,16.70
2022-10-09T13:00:20.001Z,16.80
2022-10-09T13:03:26.714Z,16.80
2022-10-09T13:06:35.493Z,16.80
2022-10-09T13:09:40.536Z,16.80
2022-10-09T13:12:51.155Z,16.80
2022-10-09T13:16:01.763Z,16.80
2022-10-09T13:19:20.868Z,16.90
2022-10-09T13:22:24.809Z,16.90
2022-10-09T13:25:29.966Z,16.90
2022-10-09T13:28:32.946Z,16.90
2022-10-09T13:31:36.905Z,17.00
2022-10-09T13:34:41.256Z,17.00
2022-10-09T13:37:44.166Z,17.00
2022-10-09T13:40:47.921Z,17.00
2022-10-09T13:43:52.169Z,17.00
2022-10-09T13:46:55.150Z,16.90
2022-10-09T13:49:59.623Z,17.00
2022-10-09T13:53:02.660Z,16.80
2022-10-09T13:56:07.688Z,16.80
2022-10-09T13:59:10.581Z,16.80
2022-10-09T14:02:13.605Z,16.70
2022-10-09T14:05:18.436Z,16.70
2022-10-09T14:08:21.647Z,16.60
2022-10-09T14:11:24.540Z,16.60
2022-10-09T14:14:27.484Z,16.50
2022-10-09T14:17:30.341Z,16.50
2022-10-09T14:20:35.427Z,16.50
2022-10-09T14:23:38.612Z,16.50
2022-10-09T14:26:41.857Z,16.60
2022-10-09T14:29:44.745Z,16.60
2022-10-09T14:32:47.970Z,16.60
2022-10-09T14:35:52.454Z,16.70
2022-10-09T14:38:55.444Z,16.50
2022-10-09T14:41:58.325Z,16.60
2022-10-09T14:45:01.179Z,16.60
2022-10-09T14:48:04.067Z,16.50
2022-10-09T14:51:11.572Z,16.40
2022-10-09T14:54:14.979Z,16.50
2022-10-09T14:57:17.878Z,16.40
2022-10-09T15:00:20.920Z,16.40
2022-10-09T15:03:23.850Z,16.40
2022-10-09T15:06:28.435Z,16.40
2022-10-09T15:09:31.556Z,16.40
2022-10-09T15:12:34.464Z,16.30
2022-10-09T15:15:37.353Z,16.40
2022-10-09T15:18:40.300Z,16.40
2022-10-09T15:21:44.554Z,16.20
2022-10-09T15:24:48.412Z,16.20
2022-10-09T15:27:54.581Z,16.20
2022-10-09T15:31:02.561Z,16.30
2022-10-09T15:34:07.650Z,16.20
2022-10-09T15:37:11.901Z,16.20
2022-10-09T15:40:14.871Z,16.20
2022-10-09T15:43:20.389Z,16.20
2022-10-09T15:46:23.328Z,16.10
2022-10-09T15:49:26.201Z,16.10
2022-10-09T15:52:30.452Z,16.00
2022-10-09T15:55:37.631Z,16.10
2022-10-09T15:58:40.521Z,16.10
2022-10-09T16:01:43.457Z,16.20
2022-10-09T16:04:46.336Z,16.00
2022-10-09T16:07:50.533Z,16.00
2022-10-09T16:10:53.437Z,16.00
2022-10-09T16:13:56.682Z,16.00
2022-10-09T16:16:59.881Z,15.90
2022-10-09T16:20:02.874Z,15.90
2022-10-09T16:23:08.177Z,15.80
2022-10-09T16:26:12.107Z,15.80
2022-10-09T16:29:14.974Z,15.80
2022-10-09T16:32:18.596Z,15.90
2022-10-09T16:35:22.668Z,15.80
2022-10-09T16:38:27.205Z,15.80
2022-10-09T16:41:30.115Z,15.90
2022-10-09T16:44:33.254Z,15.90
2022-10-09T16:47:36.410Z,15.90
2022-10-09T16:50:41.863Z,15.80
2022-10-09T16:53:49.269Z,15.90
2022-10-09T16:56:52.461Z,15.90
2022-10-09T16:59:55.336Z,15.80
2022-10-09T17:02:58.300Z,15.80
2022-10-09T17:06:01.391Z,15.90
2022-10-09T17:09:13.737Z,15.90
2022-10-09T17:12:17.773Z,15.80
2022-10-09T17:15:20.646Z,15.80
2022-10-09T17:18:23.529Z,15.80
2022-10-09T17:21:29.756Z,15.80
2022-10-09T17:24:37.303Z,15.80
2022-10-09T17:27:40.317Z,15.70
2022-10-09T17:30:43.226Z,15.70
2022-10-09T17:33:48.221Z,15.70
2022-10-09T17:36:51.132Z,15.60
2022-10-09T17:39:55.329Z,15.60
2022-10-09T17:42:58.190Z,15.60
2022-10-09T17:46:01.420Z,15.50
2022-10-09T17:49:04.759Z,15.50
2022-10-09T17:52:07.674Z,15.50
2022-10-09T17:55:12.047Z,15.50
2022-10-09T17:58:14.890Z,15.40
2022-10-09T18:01:18.707Z,15.40
2022-10-09T18:04:21.599Z,15.40
2022-10-09T18:07:25.622Z,15.40
2022-10-09T18:10:29.839Z,15.30
2022-10-09T18:13:33.210Z,15.30
2022-10-09T18:16:37.898Z,15.30
2022-10-09T18:19:40.794Z,15.20
2022-10-09T18:22:43.811Z,15.20
2022-10-09T18:25:48.025Z,15.20
2022-10-09T18:28:50.957Z,15.20
2022-10-09T18:31:55.691Z,15.20
2022-10-09T18:34:58.836Z,15.10
2022-10-09T18:38:02.045Z,15.00
2022-10-09T18:41:09.257Z,15.00
2022-10-09T18:44:17.517Z,15.00
2022-10-09T18:47:21.821Z,14.90
2022-10-09T18:50:24.885Z,14.90
2022-10-09T18:53:27.925Z,14.90
2022-10-09T18:56:33.992Z,14.80
2022-10-09T18:59:39.185Z,14.80
2022-10-09T19:02:42.327Z,14.80
2022-10-09T19:05:45.736Z,14.80
2022-10-09T19:08:48.617Z,14.70
2022-10-09T19:11:53.560Z,14.70
2022-10-09T19:14:56.436Z,14.60
2022-10-09T19:17:59.316Z,14.60
2022-10-09T19:21:02.670Z,14.60
2022-10-09T19:24:07.046Z,14.50
2022-10-09T19:27:11.553Z,14.50
2022-10-09T19:30:15.117Z,14.40
2022-10-09T19:33:18.495Z,14.40
2022-10-09T19:36:21.421Z,14.40
2022-10-09T19:39:24.414Z,14.40
2022-10-09T19:42:28.695Z,14.30
2022-10-09T19:45:31.881Z,14.30
2022-10-09T19:48:35.215Z,14.30
2022-10-09T19:51:38.202Z,14.30
2022-10-09T19:54:41.225Z,14.20
2022-10-09T19:57:45.638Z,14.20
2022-10-09T20:00:48.580Z,14.20
2022-10-09T20:03:55.761Z,14.20
2022-10-09T20:06:58.635Z,14.10
2022-10-09T20:10:01.521Z,14.10
2022-10-09T20:13:06.438Z,14.00
2022-10-09T20:16:11.667Z,14.00
2022-10-09T20:19:14.903Z,14.00
2022-10-09T20:22:17.825Z,13.90
2022-10-09T20:25:21.288Z,13.90
2022-10-09T20:28:25.591Z,13.90
2022-10-09T20:31:29.021Z,13.90
2022-10-09T20:34:32.153Z,13.90
2022-10-09T20:37:35.118Z,14.00
2022-10-09T20:40:37.960Z,13.90
2022-10-09T20:43:42.676Z,13.90
2022-10-09T20:46:45.561Z,13.90
2022-10-09T20:49:49.417Z,14.00
2022-10-09T20:52:52.828Z,14.00
2022-10-09T20:56:01.208Z,14.00
2022-10-09T20:59:05.475Z,13.90
2022-10-09T21:02:08.649Z,13.90
2022-10-09T21:05:11.516Z,14.00
2022-10-09T21:08:14.417Z,14.00
2022-10-09T21:11:19.037Z,14.00
2022-10-09T21:14:23.272Z,13.90
2022-10-09T21:17:26.221Z,14.00
2022-10-09T21:20:29.195Z,13.90
2022-10-09T21:23:32.289Z,13.90
2022-10-09T21:26:35.852Z,13.90
2022-10-09T21:29:40.311Z,13.90
2022-10-09T21:32:45.173Z,13.90
2022-10-09T21:35:50.833Z,13.90
2022-10-09T21:38:54.079Z,13.90
2022-10-09T21:41:57.194Z,13.90
2022-10-09T21:45:01.475Z,13.80
2022-10-09T21:48:05.107Z,13.80
2022-10-09T21:51:08.050Z,13.80
2022-10-09T21:54:10.914Z,13.70
2022-10-09T21:57:13.849Z,13.70
2022-10-09T22:00:18.209Z,13.70
2022-10-09T22:03:21.068Z,13.70
2022-10-09T22:06:24.225Z,13.60
2022-10-09T22:09:27.136Z,13.60
2022-10-09T22:12:29.989Z,13.70
2022-10-09T22:15:34.233Z,13.70
2022-10-09T22:18:38.148Z,13.70
2022-10-09T22:21:41.141Z,13.70
2022-10-09T22:24:44.352Z,13.70
2022-10-09T22:27:47.290Z,13.70
2022-10-09T22:31:01.427Z,13.60
2022-10-09T22:34:04.577Z,13.60
2022-10-09T22:37:07.622Z,13.60
2022-10-09T22:40:11.398Z,13.60
2022-10-09T22:43:14.289Z,13.60
2022-10-09T22:46:21.475Z,13.60
2022-10-09T22:49:24.446Z,13.50
2022-10-09T22:52:28.428Z,13.50
2022-10-09T22:55:31.667Z,13.50
2022-10-09T22:58:35.032Z,13.40
2022-10-09T23:01:42.270Z,13.40
2022-10-09T23:04:45.165Z,13.40
2022-10-09T23:07:48.261Z,13.40
2022-10-09T23:10:51.427Z,13.30
2022-10-09T23:13:55.042Z,13.30
2022-10-09T23:16:59.233Z,13.30
2022-10-09T23:20:02.309Z,13.40
2022-10-09T23:23:05.166Z,13.30
2022-10-09T23:26:09.090Z,13.30
2022-10-09T23:29:16.257Z,13.30
2022-10-09T23:32:20.597Z,13.30
2022-10-09T23:35:23.521Z,13.30
2022-10-09T23:38:26.534Z,13.30
2022-10-09T23:41:30.727Z,13.30
2022-10-09T23:44:33.584Z,13.30
2022-10-09T23:47:37.893Z,13.30
2022-10-09T23:50:40.943Z,13.30
2022-10-09T23:53:44.677Z,13.40
2022-10-09T23:56:47.545Z,13.40
2022-10-09T23:59:50.441Z,13.40
